Time;durP1;ratioP1;P1;durP2;ratioP2;P2;SDS_P1;SDS_P2;PMS_P1;PMS_P2;Temp;Humidity;BMP_temperature;BMP_pressure;BME280_temperature;BME280_humidity;BME280_pressure;Samples;Min_cycle;Max_cycle;Signal;HPM_P1;HPM_P2
2023/04/04 00:00:39;;;;;;;6.50;4.20;;;4.20;99.90;;;;;;4917305;29;20525;-78
2023/04/04 00:03:06;;;;;;;9.60;4.53;;;4.30;99.90;;;;;;4915737;29;20040;-76
2023/04/04 00:05:34;;;;;;;7.15;4.65;;;4.20;99.90;;;;;;4904500;29;20078;-78
2023/04/04 00:08:02;;;;;;;7.38;4.57;;;4.20;99.90;;;;;;4928668;29;20056;-78
2023/04/04 00:10:30;;;;;;;7.53;4.93;;;4.20;99.90;;;;;;4901547;29;20070;-79
2023/04/04 00:12:58;;;;;;;8.85;5.28;;;4.10;99.90;;;;;;4897449;29;20104;-77
2023/04/04 00:15:26;;;;;;;7.38;4.97;;;4.00;99.90;;;;;;4897904;29;20075;-78
2023/04/04 00:17:53;;;;;;;9.65;5.30;;;4.00;99.90;;;;;;4898035;29;20080;-78
2023/04/04 00:20:21;;;;;;;10.02;5.93;;;4.00;99.90;;;;;;4897771;29;20048;-77
2023/04/04 00:22:48;;;;;;;6.95;5.32;;;4.10;99.90;;;;;;4914282;29;20156;-79
2023/04/04 00:25:16;;;;;;;7.80;4.70;;;4.10;99.90;;;;;;4897332;29;20055;-78
2023/04/04 00:27:44;;;;;;;11.88;7.03;;;4.10;99.90;;;;;;4914563;29;20058;-76
2023/04/04 00:30:13;;;;;;;9.43;4.65;;;4.20;99.90;;;;;;4914172;29;20064;-79
2023/04/04 00:32:42;;;;;;;9.75;4.70;;;4.10;99.90;;;;;;4915062;29;20044;-78
2023/04/04 00:35:10;;;;;;;6.03;4.05;;;4.00;99.90;;;;;;4897718;29;20136;-78
2023/04/04 00:37:38;;;;;;;6.50;4.25;;;4.10;99.90;;;;;;4916419;29;20040;-79
2023/04/04 00:40:07;;;;;;;6.45;4.05;;;4.10;72.70;;;;;;4898101;29;20097;-77
2023/04/04 00:42:34;;;;;;;5.45;3.63;;;4.20;1.00;;;;;;4896508;29;20037;-78
2023/04/04 00:45:04;;;;;;;7.60;4.20;;;4.00;1.00;;;;;;4913289;29;20055;-77
2023/04/04 00:47:33;;;;;;;6.70;4.63;;;4.00;1.00;;;;;;4914043;29;20091;-78
2023/04/04 00:50:00;;;;;;;8.50;3.80;;;4.10;1.00;;;;;;4896188;29;20052;-77
2023/04/04 00:52:29;;;;;;;6.47;3.50;;;4.10;1.00;;;;;;4928950;29;20052;-76
2023/04/04 00:54:57;;;;;;;8.02;3.60;;;4.00;1.00;;;;;;4912929;29;20142;-79
2023/04/04 00:57:25;;;;;;;7.30;3.55;;;4.00;56.70;;;;;;4909171;29;20055;-79
2023/04/04 00:59:52;;;;;;;5.65;3.60;;;4.00;1.00;;;;;;4896553;29;20054;-79
2023/04/04 01:02:21;;;;;;;8.60;3.92;;;4.00;99.90;;;;;;4896475;29;20056;-78
2023/04/04 01:04:49;;;;;;;5.82;3.50;;;3.90;1.00;;;;;;4896052;29;20040;-76
2023/04/04 01:07:16;;;;;;;6.82;3.78;;;3.90;1.00;;;;;;4913474;29;20450;-78
2023/04/04 01:09:45;;;;;;;6.13;3.33;;;3.80;99.90;;;;;;4902341;29;20051;-76
2023/04/04 01:12:13;;;;;;;7.57;3.35;;;3.70;41.30;;;;;;4895929;29;20103;-78
2023/04/04 01:14:40;;;;;;;6.25;3.67;;;3.60;1.00;;;;;;4913707;29;20056;-76
2023/04/04 01:17:08;;;;;;;6.15;3.53;;;3.50;99.90;;;;;;4913279;29;20052;-79
2023/04/04 01:19:43;;;;;;;7.97;3.75;;;3.50;1.00;;;;;;4894146;29;20124;-79
2023/04/04 01:22:17;;;;;;;8.85;4.30;;;3.40;1.00;;;;;;4897006;29;20492;-77
2023/04/04 01:24:48;;;;;;;7.90;3.58;;;3.40;1.00;;;;;;4896243;29;20080;-78
2023/04/04 01:27:18;;;;;;;7.80;3.55;;;3.50;1.00;;;;;;4895104;29;20048;-78
2023/04/04 01:29:54;;;;;;;10.68;4.00;;;3.50;1.00;;;;;;4896850;29;20103;-78
2023/04/04 01:32:27;;;;;;;8.25;3.90;;;3.60;18.10;;;;;;4896270;29;20056;-78
2023/04/04 01:35:02;;;;;;;10.43;3.47;;;3.60;99.90;;;;;;4911668;29;20056;-77
2023/04/04 01:37:41;;;;;;;7.60;4.50;;;3.60;99.90;;;;;;4895431;29;20056;-77
2023/04/04 01:40:17;;;;;;;7.47;4.28;;;3.50;99.90;;;;;;4895806;29;20449;-76
2023/04/04 01:42:49;;;;;;;7.20;3.88;;;3.30;99.90;;;;;;4895585;29;20051;-77
2023/04/04 01:45:18;;;;;;;8.88;4.80;;;3.20;99.90;;;;;;4895119;29;20040;-76
2023/04/04 01:47:46;;;;;;;9.63;4.68;;;3.20;99.90;;;;;;4896958;29;20040;-79
2023/04/04 01:50:18;;;;;;;7.95;3.80;;;3.20;99.90;;;;;;4896947;29;20041;-79
2023/04/04 01:52:46;;;;;;;10.38;4.47;;;3.20;99.90;;;;;;4903686;29;20079;-78
2023/04/04 01:55:14;;;;;;;8.48;4.20;;;3.20;99.90;;;;;;4903437;29;20040;-77
2023/04/04 01:57:41;;;;;;;8.02;4.80;;;3.20;99.90;;;;;;4896879;29;20040;-77
2023/04/04 02:00:12;;;;;;;9.60;4.47;;;3.20;99.90;;;;;;4896180;29;20040;-77
2023/04/04 02:02:45;;;;;;;;;;;3.20;99.90;;;;;;4915308;29;20048;-78
2023/04/04 02:05:13;;;;;;;9.15;5.50;;;3.20;99.90;;;;;;4902866;29;19928;-78
2023/04/04 02:07:41;;;;;;;10.32;5.03;;;3.10;99.90;;;;;;4900633;29;20080;-78
2023/04/04 02:10:20;;;;;;;9.35;4.88;;;3.10;99.90;;;;;;4907418;29;20044;-79
2023/04/04 02:12:47;;;;;;;10.68;6.00;;;3.00;99.90;;;;;;4913462;29;20048;-79
2023/04/04 02:15:16;;;;;;;7.53;6.07;;;3.00;99.90;;;;;;4895320;29;20131;-76
2023/04/04 02:17:48;;;;;;;10.15;6.30;;;3.10;99.90;;;;;;4895921;29;20046;-77
2023/04/04 02:20:18;;;;;;;9.63;6.63;;;3.10;99.90;;;;;;4903965;29;20040;-78
2023/04/04 02:22:51;;;;;;;11.77;7.10;;;3.10;99.90;;;;;;4911005;29;20036;-77
2023/04/04 02:25:19;;;;;;;10.77;6.72;;;3.00;99.90;;;;;;4894880;29;20107;-79
2023/04/04 02:27:46;;;;;;;12.32;7.65;;;3.00;99.90;;;;;;4893232;29;20444;-78
2023/04/04 02:30:16;;;;;;;10.40;7.65;;;3.00;99.90;;;;;;4911828;29;20052;-78
2023/04/04 02:32:46;;;;;;;10.05;8.07;;;2.90;99.90;;;;;;4896235;29;20411;-79
2023/04/04 02:35:17;;;;;;;10.43;8.30;;;2.90;99.90;;;;;;4895325;29;20497;-77
2023/04/04 02:37:46;;;;;;;11.60;8.55;;;2.90;99.90;;;;;;4916658;29;20073;-80
2023/04/04 02:40:20;;;;;;;16.08;8.93;;;2.80;99.90;;;;;;4905084;29;20048;-79
2023/04/04 02:42:47;;;;;;;14.70;9.45;;;2.70;99.90;;;;;;4920049;29;20040;-79
2023/04/04 02:45:17;;;;;;;13.52;9.55;;;2.70;99.90;;;;;;4917259;29;20052;-80
2023/04/04 02:47:52;;;;;;;13.50;10.40;;;2.60;99.90;;;;;;4914288;29;20041;-77
2023/04/04 02:50:25;;;;;;;13.93;10.18;;;2.60;99.90;;;;;;4898609;29;20048;-77
2023/04/04 02:53:00;;;;;;;15.68;10.23;;;2.70;99.90;;;;;;4898297;29;20056;-77
2023/04/04 02:55:30;;;;;;;16.02;11.45;;;2.70;99.90;;;;;;4897650;29;20051;-79
2023/04/04 02:57:58;;;;;;;14.93;11.38;;;2.60;99.90;;;;;;4896512;29;20040;-80
2023/04/04 03:00:28;;;;;;;15.07;11.63;;;2.60;99.90;;;;;;4912679;29;20405;-79
2023/04/04 03:02:55;;;;;;;15.25;11.50;;;2.60;99.90;;;;;;4912469;29;20040;-79
2023/04/04 03:05:28;;;;;;;13.90;11.27;;;2.50;99.90;;;;;;4895189;29;20048;-79
2023/04/04 03:07:56;;;;;;;19.02;11.65;;;2.50;99.90;;;;;;4895139;29;20051;-77
2023/04/04 03:10:24;;;;;;;20.25;14.55;;;2.50;99.90;;;;;;4900185;29;20082;-80
2023/04/04 03:12:51;;;;;;;25.75;14.98;;;2.50;99.90;;;;;;4902063;29;20139;-80
2023/04/04 03:15:20;;;;;;;23.35;15.57;;;2.50;99.90;;;;;;4895033;29;20430;-79
2023/04/04 03:17:50;;;;;;;22.48;15.10;;;2.50;99.90;;;;;;4912234;29;20056;-80
2023/04/04 03:20:18;;;;;;;21.10;15.25;;;2.60;99.90;;;;;;4895311;29;20048;-77
2023/04/04 03:22:45;;;;;;;18.13;14.13;;;2.60;99.90;;;;;;4912615;29;20068;-79
2023/04/04 03:25:13;;;;;;;16.33;12.45;;;2.60;99.90;;;;;;4893893;29;20111;-79
2023/04/04 03:27:40;;;;;;;19.77;13.35;;;2.60;99.90;;;;;;4893832;29;20370;-79
2023/04/04 03:30:09;;;;;;;18.13;13.57;;;2.50;99.90;;;;;;4895004;29;20139;-79
2023/04/04 03:32:38;;;;;;;18.92;13.65;;;2.50;99.90;;;;;;4912375;29;20048;-78
2023/04/04 03:35:07;;;;;;;19.63;14.70;;;2.50;99.90;;;;;;4893732;29;20080;-78
2023/04/04 03:37:35;;;;;;;23.48;15.07;;;2.50;99.90;;;;;;4894543;29;20115;-78
2023/04/04 03:40:03;;;;;;;21.25;15.82;;;2.40;99.90;;;;;;4914154;29;20046;-79
2023/04/04 03:42:34;;;;;;;18.63;14.75;;;2.40;99.90;;;;;;4906731;29;20048;-79
2023/04/04 03:45:06;;;;;;;24.90;16.27;;;2.40;99.90;;;;;;4900061;29;20123;-78
2023/04/04 03:47:34;;;;;;;23.38;15.35;;;2.40;99.90;;;;;;4898833;29;20063;-76
2023/04/04 03:50:02;;;;;;;23.80;16.27;;;2.30;99.90;;;;;;4898973;29;20131;-79
2023/04/04 03:52:32;;;;;;;24.83;18.05;;;2.30;99.90;;;;;;4897922;29;20047;-79
2023/04/04 03:54:59;;;;;;;22.63;15.50;;;2.30;99.90;;;;;;4914575;29;20123;-77
2023/04/04 03:57:27;;;;;;;24.13;15.95;;;2.30;99.90;;;;;;4916795;29;20047;-77
2023/04/04 03:59:56;;;;;;;22.17;16.98;;;2.20;99.90;;;;;;4917106;29;20128;-78
2023/04/04 04:02:24;;;;;;;28.58;19.60;;;2.20;99.90;;;;;;4899939;29;20116;-78
2023/04/04 04:04:54;;;;;;;28.60;16.60;;;2.20;99.90;;;;;;4899570;29;20051;-79
2023/04/04 04:07:21;;;;;;;29.20;19.08;;;2.10;99.90;;;;;;4914859;29;20527;-77
2023/04/04 04:09:50;;;;;;;28.13;18.20;;;2.10;99.90;;;;;;4899686;29;20079;-79
2023/04/04 04:12:18;;;;;;;22.85;14.77;;;2.10;99.90;;;;;;4898949;29;20044;-77
2023/04/04 04:14:45;;;;;;;25.58;16.98;;;2.00;99.90;;;;;;4915895;29;20135;-77
2023/04/04 04:17:14;;;;;;;26.65;18.33;;;1.90;99.90;;;;;;4916299;29;20453;-79
2023/04/04 04:19:41;;;;;;;29.92;18.60;;;1.90;99.90;;;;;;4902931;29;20055;-79
2023/04/04 04:22:09;;;;;;;25.15;18.23;;;1.90;99.90;;;;;;4909519;29;20408;-78
2023/04/04 04:24:36;;;;;;;27.48;17.20;;;1.80;99.90;;;;;;4904724;29;20096;-77
2023/04/04 04:27:06;;;;;;;25.85;17.92;;;1.80;99.90;;;;;;4905951;29;20052;-78
2023/04/04 04:29:34;;;;;;;26.20;18.30;;;1.70;99.90;;;;;;4901485;29;20474;-78
2023/04/04 04:32:02;;;;;;;27.85;18.60;;;1.70;99.90;;;;;;4929323;29;20048;-78
2023/04/04 04:34:33;;;;;;;33.97;20.20;;;1.70;99.90;;;;;;4912387;29;20091;-78
2023/04/04 04:37:00;;;;;;;31.60;22.67;;;1.70;99.90;;;;;;4902738;29;20080;-78
2023/04/04 04:39:35;;;;;;;32.45;22.98;;;1.70;99.90;;;;;;4897736;29;20105;-79
2023/04/04 04:42:18;;;;;;;34.90;25.40;;;1.70;99.90;;;;;;4898571;29;20048;-78
2023/04/04 04:44:51;;;;;;;34.78;25.35;;;1.70;99.90;;;;;;4897410;29;20056;-76
2023/04/04 04:47:20;;;;;;;30.30;23.73;;;1.70;99.90;;;;;;4898356;29;20060;-77
2023/04/04 04:49:48;;;;;;;30.60;21.13;;;1.70;99.90;;;;;;4894046;29;20054;-78
2023/04/04 04:52:20;;;;;;;29.85;23.15;;;1.70;99.90;;;;;;4911842;29;20048;-76
2023/04/04 04:54:49;;;;;;;35.40;23.17;;;1.70;99.90;;;;;;4897971;29;20051;-78
2023/04/04 04:57:18;;;;;;;33.20;22.48;;;1.70;99.90;;;;;;4898294;29;20062;-77
2023/04/04 04:59:46;;;;;;;25.73;19.05;;;1.70;99.90;;;;;;4897779;29;20044;-79
2023/04/04 05:02:16;;;;;;;30.00;20.88;;;1.70;99.90;;;;;;4897357;29;20040;-75
2023/04/04 05:04:46;;;;;;;28.92;19.63;;;1.70;99.90;;;;;;4896348;29;20135;-78
2023/04/04 05:07:16;;;;;;;26.17;18.58;;;1.60;99.90;;;;;;4898608;29;20044;-77
2023/04/04 05:09:46;;;;;;;27.63;20.17;;;1.60;99.90;;;;;;4898333;29;20040;-77
2023/04/04 05:12:18;;;;;;;30.40;21.17;;;1.50;99.90;;;;;;4896091;29;20071;-78
2023/04/04 05:14:48;;;;;;;32.90;24.67;;;1.60;99.90;;;;;;4897139;29;20054;-78
2023/04/04 05:17:16;;;;;;;30.98;23.35;;;1.70;99.90;;;;;;4896456;29;20135;-78
2023/04/04 05:19:45;;;;;;;36.08;26.63;;;1.70;99.90;;;;;;4896124;29;20116;-76
2023/04/04 05:22:16;;;;;;;37.97;27.67;;;1.70;99.90;;;;;;4895800;29;20036;-78
2023/04/04 05:24:48;;;;;;;44.10;30.35;;;1.70;99.90;;;;;;4896504;29;20100;-77
2023/04/04 05:27:21;;;;;;;45.15;29.83;;;1.70;99.90;;;;;;4896739;29;20052;-76
2023/04/04 05:29:55;;;;;;;43.58;30.00;;;1.70;99.90;;;;;;4913196;29;20075;-78
2023/04/04 05:32:23;;;;;;;43.92;31.67;;;1.80;99.90;;;;;;4895655;29;20052;-75
2023/04/04 05:35:01;;;;;;;44.00;30.95;;;1.80;99.90;;;;;;4895061;29;20055;-77
2023/04/04 05:37:33;;;;;;;44.83;30.20;;;1.70;99.90;;;;;;4895192;29;20075;-76
2023/04/04 05:40:01;;;;;;;41.75;30.02;;;1.80;99.90;;;;;;4895340;29;20048;-78
2023/04/04 05:42:30;;;;;;;41.47;31.17;;;1.70;99.90;;;;;;4904670;29;20123;-77
2023/04/04 05:44:59;;;;;;;47.90;34.17;;;1.80;99.90;;;;;;4913610;29;20048;-78
2023/04/04 05:47:30;;;;;;;46.38;35.15;;;1.80;99.90;;;;;;4897430;29;20068;-77
2023/04/04 05:49:58;;;;;;;51.83;34.83;;;1.80;99.90;;;;;;4896580;29;20119;-77
2023/04/04 05:52:25;;;;;;;54.78;38.60;;;1.80;99.90;;;;;;4896260;29;20052;-77
2023/04/04 05:54:53;;;;;;;57.47;40.60;;;1.80;99.90;;;;;;4899149;29;20066;-77
2023/04/04 05:57:34;;;;;;;59.63;40.63;;;1.90;99.90;;;;;;4901045;29;20652;-76
2023/04/04 06:00:04;;;;;;;62.28;41.13;;;1.90;99.90;;;;;;4911885;29;20390;-78
2023/04/04 06:02:41;;;;;;;63.20;46.10;;;1.90;99.90;;;;;;4912944;29;20067;-78
2023/04/04 06:05:15;;;;;;;67.47;45.72;;;1.90;99.90;;;;;;4894477;29;20123;-77
2023/04/04 06:07:43;;;;;;;61.35;39.60;;;2.00;99.90;;;;;;4894971;29;20048;-76
2023/04/04 06:10:11;;;;;;;62.35;40.08;;;2.10;99.90;;;;;;4910507;29;20068;-76
2023/04/04 06:12:40;;;;;;;53.42;36.00;;;2.10;99.90;;;;;;4895351;29;20071;-76
2023/04/04 06:15:11;;;;;;;58.25;38.00;;;2.10;99.90;;;;;;4894325;29;20083;-74
2023/04/04 06:17:40;;;;;;;65.45;44.58;;;2.00;99.90;;;;;;4896233;29;20059;-75
2023/04/04 06:20:08;;;;;;;65.35;41.25;;;2.10;99.90;;;;;;4895562;29;20044;-78
2023/04/04 06:22:36;;;;;;;66.03;41.60;;;2.00;99.90;;;;;;4912120;29;20134;-75
2023/04/04 06:25:05;;;;;;;56.53;32.80;;;2.10;99.90;;;;;;4893024;29;20052;-77
2023/04/04 06:27:33;;;;;;;51.28;32.92;;;2.20;99.90;;;;;;4904623;29;20044;-77
2023/04/04 06:30:05;;;;;;;55.00;34.47;;;2.30;99.90;;;;;;4897707;29;20054;-77
2023/04/04 06:32:32;;;;;;;57.60;36.70;;;2.40;99.90;;;;;;4899380;29;20044;-76
2023/04/04 06:35:01;;;;;;;58.83;39.25;;;2.50;99.90;;;;;;4901682;29;20044;-77
2023/04/04 06:37:43;;;;;;;53.03;35.72;;;2.50;99.90;;;;;;4904519;29;20040;-77
2023/04/04 06:40:20;;;;;;;48.22;34.70;;;2.60;99.90;;;;;;4918568;29;20420;-77
2023/04/04 06:42:50;;;;;;;48.20;33.60;;;2.80;99.90;;;;;;4900757;29;20103;-76
2023/04/04 06:45:24;;;;;;;54.58;34.83;;;2.80;99.90;;;;;;4903850;29;20063;-87
2023/04/04 06:48:00;;;;;;;44.58;31.67;;;2.90;99.90;;;;;;4907521;29;20410;-82
2023/04/04 06:50:31;;;;;;;44.75;31.30;;;3.00;99.90;;;;;;4919904;29;20072;-80
2023/04/04 06:53:02;;;;;;;51.92;32.22;;;2.90;99.90;;;;;;4901805;29;20048;-85
2023/04/04 06:55:30;;;;;;;41.55;26.85;;;2.80;99.90;;;;;;4917106;29;20052;-77
2023/04/04 06:57:58;;;;;;;39.47;26.88;;;2.90;99.90;;;;;;4895238;29;20068;-76
2023/04/04 07:00:26;;;;;;;47.53;32.58;;;2.90;99.90;;;;;;4912068;29;20123;-78
2023/04/04 07:02:59;;;;;;;47.50;29.77;;;3.10;99.90;;;;;;4911884;29;20079;-78
2023/04/04 07:05:26;;;;;;;42.95;28.33;;;3.30;99.90;;;;;;4895266;29;20115;-77
2023/04/04 07:07:55;;;;;;;42.45;27.63;;;3.50;99.90;;;;;;4914108;29;20117;-77
2023/04/04 07:10:23;;;;;;;33.00;21.92;;;3.70;99.90;;;;;;4915812;29;20052;-76
2023/04/04 07:12:51;;;;;;;36.63;22.98;;;3.60;99.90;;;;;;4895463;29;20516;-77
2023/04/04 07:15:18;;;;;;;32.58;22.10;;;3.50;99.90;;;;;;4924483;29;20064;-76
2023/04/04 07:17:47;;;;;;;28.63;18.60;;;3.60;99.90;;;;;;4926811;29;20048;-76
2023/04/04 07:20:15;;;;;;;29.88;19.88;;;3.70;99.90;;;;;;4915753;29;20059;-75
2023/04/04 07:22:43;;;;;;;26.20;17.95;;;3.70;99.90;;;;;;4915976;29;20052;-78
2023/04/04 07:25:11;;;;;;;30.85;18.70;;;3.70;99.90;;;;;;4915256;29;20071;-76
2023/04/04 07:27:39;;;;;;;28.35;18.05;;;3.60;99.90;;;;;;4915030;29;20055;-77
2023/04/04 07:30:08;;;;;;;35.47;24.23;;;3.50;99.90;;;;;;4915436;29;20112;-76
2023/04/04 07:32:37;;;;;;;41.97;28.90;;;3.50;99.90;;;;;;4915330;29;20404;-77
2023/04/04 07:35:06;;;;;;;40.05;25.85;;;3.70;99.90;;;;;;4915165;29;20187;-78
2023/04/04 07:37:36;;;;;;;39.70;28.10;;;3.70;99.90;;;;;;4914941;29;20518;-77
2023/04/04 07:40:06;;;;;;;46.45;28.88;;;3.80;99.90;;;;;;4915021;29;20048;-77
2023/04/04 07:42:34;;;;;;;31.15;21.13;;;3.90;99.90;;;;;;4914499;29;20048;-74
2023/04/04 07:45:02;;;;;;;24.98;17.70;;;3.90;99.90;;;;;;4913568;29;20048;-77
2023/04/04 07:47:29;;;;;;;26.40;18.90;;;3.80;99.90;;;;;;4898860;29;20062;-76
2023/04/04 07:49:57;;;;;;;29.70;17.73;;;3.70;99.90;;;;;;4914657;29;20441;-76
2023/04/04 07:52:26;;;;;;;27.35;18.35;;;3.70;99.90;;;;;;4915641;29;20204;-83
2023/04/04 07:54:54;;;;;;;25.27;18.08;;;3.70;99.90;;;;;;4915030;29;20489;-77
2023/04/04 07:57:21;;;;;;;30.48;23.05;;;3.90;99.90;;;;;;4914392;29;20068;-79
2023/04/04 07:59:49;;;;;;;44.55;29.42;;;4.00;99.90;;;;;;4898849;29;20055;-83
2023/04/04 08:02:16;;;;;;;31.92;22.23;;;4.10;99.90;;;;;;4916032;29;20048;-78
2023/04/04 08:04:44;;;;;;;40.35;22.48;;;4.20;99.90;;;;;;4898978;29;20048;-76
2023/04/04 08:07:11;;;;;;;29.70;21.05;;;4.40;99.90;;;;;;4898134;29;20055;-77
2023/04/04 08:09:40;;;;;;;26.42;19.42;;;4.30;99.90;;;;;;4912458;29;20088;-75
2023/04/04 08:12:08;;;;;;;26.17;18.05;;;4.20;99.90;;;;;;4914020;29;20052;-77
2023/04/04 08:14:36;;;;;;;24.67;17.42;;;4.30;99.90;;;;;;4915014;29;20134;-77
2023/04/04 08:17:03;;;;;;;29.65;17.15;;;4.30;99.90;;;;;;4914350;29;20040;-78
2023/04/04 08:19:30;;;;;;;23.48;16.52;;;4.30;99.90;;;;;;4914358;29;20492;-76
2023/04/04 08:21:58;;;;;;;27.55;20.25;;;4.40;99.90;;;;;;4914513;29;20078;-79
2023/04/04 08:24:25;;;;;;;27.05;17.60;;;4.40;99.90;;;;;;4912552;29;20753;-78
2023/04/04 08:26:54;;;;;;;22.67;17.77;;;4.40;99.90;;;;;;4914317;29;20497;-77
2023/04/04 08:29:22;;;;;;;25.73;18.42;;;4.60;99.90;;;;;;4918188;29;20036;-78
2023/04/04 08:31:49;;;;;;;24.75;15.88;;;4.80;99.90;;;;;;4915109;29;20051;-79
2023/04/04 08:34:17;;;;;;;25.50;16.80;;;5.00;99.90;;;;;;4914612;29;20056;-78
2023/04/04 08:36:44;;;;;;;21.77;14.00;;;5.20;99.90;;;;;;4914996;29;20044;-80
2023/04/04 08:39:12;;;;;;;21.25;13.55;;;5.20;99.90;;;;;;4914326;29;20084;-76
2023/04/04 08:41:42;;;;;;;24.25;16.88;;;5.10;99.90;;;;;;4915225;29;20478;-77
2023/04/04 08:44:16;;;;;;;22.77;13.25;;;5.00;99.90;;;;;;4897233;29;20082;-78
2023/04/04 08:46:45;;;;;;;22.20;14.07;;;4.80;99.90;;;;;;4898109;29;20037;-76
2023/04/04 08:49:14;;;;;;;24.98;13.95;;;4.70;99.90;;;;;;4927059;29;20048;-78
2023/04/04 08:51:43;;;;;;;22.63;12.70;;;4.70;99.90;;;;;;4925546;29;20056;-77
2023/04/04 08:54:11;;;;;;;20.25;12.68;;;4.70;99.90;;;;;;4915166;29;20496;-77
2023/04/04 08:56:39;;;;;;;20.77;12.80;;;4.70;99.90;;;;;;4916456;29;20056;-78
2023/04/04 08:59:06;;;;;;;18.20;10.00;;;4.90;99.90;;;;;;4913765;29;20083;-78
2023/04/04 09:01:35;;;;;;;15.05;9.38;;;5.10;99.90;;;;;;4913113;29;20067;-79
2023/04/04 09:04:04;;;;;;;15.15;9.50;;;5.20;99.90;;;;;;4911256;29;20592;-79
2023/04/04 09:06:32;;;;;;;17.70;9.30;;;5.30;99.90;;;;;;4897047;29;20052;-78
2023/04/04 09:09:00;;;;;;;16.45;8.18;;;5.30;99.90;;;;;;4912226;29;20040;-78
2023/04/04 09:11:31;;;;;;;15.95;9.82;;;5.00;99.90;;;;;;4913248;29;20704;-82
2023/04/04 09:13:58;;;;;;;17.48;10.57;;;4.90;99.90;;;;;;4895771;29;20052;-79
2023/04/04 09:16:27;;;;;;;20.63;10.38;;;4.70;99.90;;;;;;4913658;29;20710;-78
2023/04/04 09:18:56;;;;;;;14.38;9.05;;;4.70;99.90;;;;;;4913692;29;20131;-77
2023/04/04 09:21:23;;;;;;;14.98;9.38;;;4.80;99.90;;;;;;4912492;29;20055;-79
2023/04/04 09:23:59;;;;;;;17.63;9.70;;;4.70;99.90;;;;;;4915331;29;20048;-77
2023/04/04 09:26:27;;;;;;;25.17;10.88;;;4.60;99.90;;;;;;4895889;29;20059;-77
2023/04/04 09:28:55;;;;;;;19.35;11.63;;;4.60;99.90;;;;;;4913930;29;20040;-77
2023/04/04 09:31:25;;;;;;;17.42;11.10;;;4.50;99.90;;;;;;4914224;29;20553;-78
2023/04/04 09:33:52;;;;;;;15.52;9.82;;;4.60;99.90;;;;;;4913402;29;20040;-77
2023/04/04 09:36:21;;;;;;;16.75;9.80;;;4.50;99.90;;;;;;4912778;29;20063;-77
2023/04/04 09:38:53;;;;;;;16.95;9.27;;;4.60;99.90;;;;;;4903098;29;20052;-76
2023/04/04 09:41:21;;;;;;;17.10;9.75;;;4.60;99.90;;;;;;4915987;29;20125;-78
2023/04/04 09:43:48;;;;;;;16.08;9.75;;;4.80;99.90;;;;;;4919365;29;20048;-76
2023/04/04 09:46:19;;;;;;;17.85;10.80;;;4.90;99.90;;;;;;4918681;29;20062;-75
2023/04/04 09:48:50;;;;;;;18.08;11.15;;;4.90;99.90;;;;;;4922686;29;20091;-77
2023/04/04 09:51:18;;;;;;;17.02;10.38;;;5.00;99.90;;;;;;4904738;29;20056;-78
2023/04/04 09:53:49;;;;;;;17.25;10.80;;;5.10;99.90;;;;;;4915094;29;20055;-77
2023/04/04 09:56:16;;;;;;;15.15;10.95;;;5.30;99.90;;;;;;4913012;29;20147;-79
2023/04/04 09:58:47;;;;;;;17.00;11.82;;;5.20;99.90;;;;;;4912084;29;20130;-77
2023/04/04 10:01:15;;;;;;;15.55;11.27;;;5.40;99.90;;;;;;4912150;29;20036;-77
2023/04/04 10:03:42;;;;;;;18.98;12.10;;;5.50;99.90;;;;;;4911100;29;20938;-77
2023/04/04 10:06:11;;;;;;;17.35;11.98;;;5.60;99.90;;;;;;4911807;29;20068;-77
2023/04/04 10:08:41;;;;;;;15.68;11.30;;;5.60;99.90;;;;;;4913605;29;20059;-76
2023/04/04 10:11:10;;;;;;;17.27;10.57;;;5.70;99.90;;;;;;4913599;29;20157;-78
2023/04/04 10:13:43;;;;;;;16.75;11.82;;;5.50;99.90;;;;;;4912299;29;20476;-77
2023/04/04 10:16:10;;;;;;;18.75;12.70;;;5.50;99.90;;;;;;4913597;29;20051;-79
2023/04/04 10:18:38;;;;;;;19.05;13.57;;;5.50;99.90;;;;;;4911920;29;20131;-78
2023/04/04 10:21:07;;;;;;;24.00;12.57;;;5.60;99.90;;;;;;4895031;29;20083;-78
2023/04/04 10:23:35;;;;;;;16.98;12.05;;;5.60;99.90;;;;;;4910274;29;20044;-77
2023/04/04 10:26:03;;;;;;;18.42;12.80;;;5.50;99.90;;;;;;4911944;29;20040;-76
2023/04/04 10:28:32;;;;;;;21.80;13.55;;;5.60;99.90;;;;;;4896546;29;20103;-77
2023/04/04 10:31:14;;;;;;;21.50;13.15;;;5.50;99.90;;;;;;4914592;29;20040;-77
2023/04/04 10:33:54;;;;;;;22.10;13.73;;;5.50;99.90;;;;;;4922835;29;20044;-77
2023/04/04 10:36:23;;;;;;;19.27;14.38;;;5.40;99.90;;;;;;4917317;29;20054;-75
2023/04/04 10:39:03;;;;;;;19.67;15.30;;;5.40;99.90;;;;;;4917704;29;20046;-77
2023/04/04 10:41:32;;;;;;;18.77;14.35;;;5.50;99.90;;;;;;4917803;29;20044;-77
2023/04/04 10:44:13;;;;;;;19.48;15.90;;;5.30;99.90;;;;;;4914222;29;20083;-77
2023/04/04 10:46:44;;;;;;;20.70;15.18;;;5.30;99.90;;;;;;4909986;29;20036;-78
2023/04/04 10:49:12;;;;;;;20.30;15.77;;;5.10;99.90;;;;;;4911268;29;20048;-75
2023/04/04 10:51:40;;;;;;;21.50;14.65;;;5.10;99.90;;;;;;4909303;29;20055;-76
2023/04/04 10:54:08;;;;;;;22.80;17.58;;;5.20;99.90;;;;;;4910446;29;20131;-76
2023/04/04 10:56:37;;;;;;;24.13;17.65;;;5.20;99.90;;;;;;4913210;29;20123;-77
2023/04/04 10:59:13;;;;;;;21.75;16.02;;;5.20;99.90;;;;;;4913326;29;20505;-77
2023/04/04 11:01:57;;;;;;;17.02;14.15;;;5.20;99.90;;;;;;4915323;29;20044;-76
2023/04/04 11:04:32;;;;;;;17.40;13.48;;;5.30;99.90;;;;;;4915971;29;20044;-78
2023/04/04 11:07:10;;;;;;;23.20;14.87;;;5.20;99.90;;;;;;4914769;29;20508;-77
2023/04/04 11:09:54;;;;;;;19.75;14.20;;;5.10;99.90;;;;;;4911941;29;20048;-77
2023/04/04 11:12:30;;;;;;;20.42;15.52;;;5.10;99.90;;;;;;4912947;29;20040;-78
2023/04/04 11:15:09;;;;;;;21.65;13.57;;;5.10;99.90;;;;;;4909500;29;20068;-76
2023/04/04 11:18:05;;;;;;;16.63;12.75;;;5.00;99.90;;;;;;4908066;29;20051;-77
2023/04/04 11:20:35;;;;;;;23.88;16.50;;;5.10;99.90;;;;;;4910581;29;20071;-77
2023/04/04 11:23:07;;;;;;;22.85;17.13;;;4.90;99.90;;;;;;4912017;29;20044;-78
2023/04/04 11:25:37;;;;;;;30.55;20.42;;;4.90;99.90;;;;;;4911841;29;20628;-76
2023/04/04 11:28:08;;;;;;;33.83;21.08;;;4.90;99.90;;;;;;4916689;29;20048;-77
2023/04/04 11:30:47;;;;;;;29.63;21.42;;;4.90;99.90;;;;;;4896535;29;20604;-76
2023/04/04 11:33:25;;;;;;;25.67;18.58;;;5.00;99.90;;;;;;4913589;29;20044;-77
2023/04/04 11:35:53;;;;;;;40.45;28.63;;;5.00;99.90;;;;;;4911286;29;20048;-77
2023/04/04 11:38:20;;;;;;;26.98;20.08;;;5.10;99.90;;;;;;4912922;29;20048;-75
2023/04/04 11:40:58;;;;;;;26.38;17.73;;;4.90;99.90;;;;;;4910890;29;20063;-78
2023/04/04 11:43:27;;;;;;;26.38;18.90;;;4.80;99.90;;;;;;4911814;29;20052;-78
2023/04/04 11:46:07;;;;;;;25.30;18.73;;;4.80;99.90;;;;;;4911378;29;20048;-76
2023/04/04 11:48:35;;;;;;;22.20;18.35;;;4.70;99.90;;;;;;4910994;29;20050;-77
2023/04/04 11:51:03;;;;;;;27.05;20.20;;;4.70;99.90;;;;;;4911584;29;20060;-77
2023/04/04 11:53:33;;;;;;;28.27;21.00;;;4.60;99.90;;;;;;4911518;29;20059;-77
2023/04/04 11:56:00;;;;;;;31.17;21.38;;;4.40;99.90;;;;;;4910475;29;20645;-77
2023/04/04 11:58:28;;;;;;;31.50;22.65;;;4.40;99.90;;;;;;4911076;29;20054;-77
2023/04/04 12:00:57;;;;;;;32.40;24.77;;;4.50;99.90;;;;;;4914294;29;20050;-77
2023/04/04 12:03:28;;;;;;;30.98;23.20;;;4.60;99.90;;;;;;4914977;29;20048;-76
2023/04/04 12:05:57;;;;;;;29.40;21.30;;;4.50;99.90;;;;;;4915454;29;20089;-75
2023/04/04 12:08:25;;;;;;;27.40;21.67;;;4.60;99.90;;;;;;4915279;29;20083;-76
2023/04/04 12:10:53;;;;;;;29.48;21.67;;;4.60;99.90;;;;;;4896712;29;20390;-75
2023/04/04 12:13:20;;;;;;;31.90;22.92;;;4.60;99.90;;;;;;4913183;29;20044;-75
2023/04/04 12:15:49;;;;;;;33.03;25.80;;;4.50;99.90;;;;;;4913776;29;20048;-77
2023/04/04 12:18:23;;;;;;;36.88;28.25;;;4.50;99.90;;;;;;4914003;29;20044;-77
2023/04/04 12:20:51;;;;;;;37.95;28.48;;;4.50;99.90;;;;;;4914622;29;20054;-75
2023/04/04 12:23:19;;;;;;;37.00;28.75;;;4.40;99.90;;;;;;4914427;29;20479;-76
2023/04/04 12:25:52;;;;;;;39.38;27.60;;;4.50;99.90;;;;;;4913981;29;20454;-76
2023/04/04 12:28:20;;;;;;;37.60;28.13;;;4.40;99.90;;;;;;4914100;29;20079;-78
2023/04/04 12:30:48;;;;;;;36.42;28.98;;;4.50;99.90;;;;;;4913485;29;20058;-75
2023/04/04 12:33:16;;;;;;;41.95;30.55;;;4.50;99.90;;;;;;4913700;29;20051;-77
2023/04/04 12:35:51;;;;;;;43.15;33.67;;;4.60;99.90;;;;;;4895204;29;20489;-76
2023/04/04 12:38:19;;;;;;;;;;;4.80;99.90;;;;;;4914528;29;20054;-77
2023/04/04 12:40:47;;;;;;;43.25;33.70;;;5.10;99.90;;;;;;4913079;29;20352;-75
2023/04/04 12:43:17;;;;;;;43.47;35.85;;;5.00;99.90;;;;;;4913013;29;20044;-78
2023/04/04 12:45:45;;;;;;;35.92;29.80;;;5.10;99.90;;;;;;4913976;29;20056;-76
2023/04/04 12:48:16;;;;;;;31.40;25.90;;;5.10;99.90;;;;;;4913053;29;20097;-78
2023/04/04 12:50:56;;;;;;;29.08;23.35;;;5.10;99.90;;;;;;4913863;29;20052;-76
2023/04/04 12:53:26;;;;;;;27.40;20.75;;;5.30;99.90;;;;;;4914173;29;20154;-76
2023/04/04 12:55:55;;;;;;;19.73;14.13;;;5.40;99.90;;;;;;4913691;29;20051;-77